createdAt,value
2019-01-31T00:02:19.457Z,-6.60
2019-01-31T00:04:59.621Z,-6.50
2019-01-31T00:07:43.070Z,-6.50
2019-01-31T00:10:20.715Z,-6.50
2019-01-31T00:12:52.386Z,-6.60
2019-01-31T00:15:24.041Z,-6.60
2019-01-31T00:17:55.722Z,-6.60
2019-01-31T00:20:33.242Z,-6.60
2019-01-31T00:23:24.892Z,-6.60
2019-01-31T00:25:56.548Z,-6.60
2019-01-31T00:28:34.120Z,-6.60
2019-01-31T00:31:30.554Z,-6.70
2019-01-31T00:34:02.393Z,-6.70
2019-01-31T00:36:52.297Z,-6.60
2019-01-31T00:39:57.710Z,-6.60
2019-01-31T00:42:47.482Z,-6.60
2019-01-31T00:45:49.418Z,-6.60
2019-01-31T00:48:29.907Z,-6.60
2019-01-31T00:51:04.093Z,-6.60
2019-01-31T00:53:53.994Z,-6.60
2019-01-31T00:56:40.775Z,-6.60
2019-01-31T00:59:18.269Z,-6.50
2019-01-31T01:01:52.614Z,-6.50
2019-01-31T01:04:39.402Z,-6.50
2019-01-31T01:07:16.721Z,-6.40
2019-01-31T01:09:54.402Z,-6.40
2019-01-31T01:12:40.970Z,-6.40
2019-01-31T01:15:15.610Z,-6.30
2019-01-31T01:17:50.044Z,-6.30
2019-01-31T01:20:46.000Z,-6.20
2019-01-31T01:23:26.311Z,-6.20
2019-01-31T01:26:32.841Z,-6.20
2019-01-31T01:29:07.433Z,-6.20
2019-01-31T01:31:41.790Z,-6.10
2019-01-31T01:34:16.522Z,-6.10
2019-01-31T01:37:02.641Z,-6.10
2019-01-31T01:39:43.075Z,-6.10
2019-01-31T01:42:29.946Z,-6.00
2019-01-31T01:45:04.508Z,-6.00
2019-01-31T01:47:38.881Z,-6.00
2019-01-31T01:50:19.477Z,-6.00
2019-01-31T01:52:51.125Z,-6.00
2019-01-31T01:55:28.446Z,-6.00
2019-01-31T01:58:15.191Z,-6.00
2019-01-31T02:00:53.111Z,-6.00
2019-01-31T02:03:24.859Z,-6.10
2019-01-31T02:06:05.161Z,-6.00
2019-01-31T02:08:42.374Z,-6.00
2019-01-31T02:11:19.913Z,-6.00
2019-01-31T02:13:57.382Z,-6.00
2019-01-31T02:16:46.902Z,-6.00
2019-01-31T02:19:37.037Z,-6.00
2019-01-31T02:22:11.658Z,-6.00
2019-01-31T02:24:43.521Z,-6.00
2019-01-31T02:27:27.217Z,-5.90
2019-01-31T02:30:23.051Z,-5.90
2019-01-31T02:33:03.279Z,-5.90
2019-01-31T02:35:49.757Z,-5.90
2019-01-31T02:38:23.950Z,-5.90
2019-01-31T02:41:04.138Z,-5.70
2019-01-31T02:43:52.609Z,-5.80
2019-01-31T02:46:39.171Z,-5.70
2019-01-31T02:49:13.759Z,-5.70
2019-01-31T02:51:45.502Z,-5.70
2019-01-31T02:54:25.902Z,-5.70
2019-01-31T02:57:03.266Z,-5.70
2019-01-31T02:59:50.090Z,-5.70
2019-01-31T03:02:42.590Z,-5.70
2019-01-31T03:05:26.663Z,-5.70
2019-01-31T03:08:19.318Z,-5.80
2019-01-31T03:10:56.962Z,-5.80
2019-01-31T03:13:40.354Z,-5.90
2019-01-31T03:16:18.085Z,-5.90
2019-01-31T03:18:52.674Z,-5.90
2019-01-31T03:21:36.383Z,-5.80
2019-01-31T03:24:10.874Z,-5.80
2019-01-31T03:26:54.535Z,-5.80
2019-01-31T03:29:38.107Z,-5.80
2019-01-31T03:32:27.946Z,-5.80
2019-01-31T03:35:02.498Z,-5.70
2019-01-31T03:37:36.803Z,-5.70
2019-01-31T03:40:20.542Z,-5.70
2019-01-31T03:43:03.594Z,-5.70
2019-01-31T03:46:08.776Z,-5.70
2019-01-31T03:48:46.473Z,-5.70
2019-01-31T03:51:26.956Z,-5.70
2019-01-31T03:54:16.508Z,-5.70
2019-01-31T03:56:50.666Z,-5.70
2019-01-31T03:59:25.247Z,-5.80
2019-01-31T04:02:14.318Z,-5.80
2019-01-31T04:05:00.978Z,-5.90
2019-01-31T04:07:29.569Z,-5.80
2019-01-31T04:09:58.214Z,-5.90
2019-01-31T04:12:27.052Z,-5.90
2019-01-31T04:14:55.626Z,-5.90
2019-01-31T04:17:24.234Z,-5.90
2019-01-31T04:19:52.817Z,-6.00
2019-01-31T04:22:21.394Z,-6.00
2019-01-31T04:24:49.989Z,-5.90
2019-01-31T04:27:18.567Z,-5.90
2019-01-31T04:29:47.153Z,-5.80
2019-01-31T04:32:15.721Z,-5.90
2019-01-31T04:34:44.311Z,-5.90
2019-01-31T04:37:12.886Z,-5.90
2019-01-31T04:39:41.478Z,-5.90
2019-01-31T04:42:10.193Z,-5.90
2019-01-31T04:44:38.829Z,-5.90
2019-01-31T04:47:07.497Z,-5.90
2019-01-31T04:49:36.066Z,-5.90
2019-01-31T04:52:04.873Z,-6.00
2019-01-31T04:54:33.530Z,-6.00
2019-01-31T04:57:02.188Z,-5.90
2019-01-31T04:59:30.762Z,-5.90
2019-01-31T05:01:59.345Z,-5.90
2019-01-31T05:04:27.997Z,-5.90
2019-01-31T05:06:56.586Z,-5.90
2019-01-31T05:09:25.170Z,-5.90
2019-01-31T05:11:53.857Z,-5.90
2019-01-31T05:14:22.444Z,-5.90
2019-01-31T05:16:51.097Z,-5.90
2019-01-31T05:19:19.686Z,-5.90
2019-01-31T05:21:48.279Z,-6.00
2019-01-31T05:24:16.862Z,-6.00
2019-01-31T05:26:45.502Z,-6.00
2019-01-31T05:29:14.094Z,-6.00
2019-01-31T05:31:42.738Z,-6.00
2019-01-31T05:34:11.318Z,-5.90
2019-01-31T05:36:39.906Z,-5.90
2019-01-31T05:39:08.840Z,-5.90
2019-01-31T05:41:37.428Z,-6.00
2019-01-31T05:44:06.074Z,-6.00
2019-01-31T05:46:34.663Z,-6.00
2019-01-31T05:49:03.304Z,-6.00
2019-01-31T05:51:32.091Z,-5.90
2019-01-31T05:54:00.682Z,-5.90
2019-01-31T05:56:29.251Z,-5.80
2019-01-31T05:58:57.833Z,-5.90
2019-01-31T06:01:26.553Z,-5.90
2019-01-31T06:03:55.138Z,-5.90
2019-01-31T06:06:23.709Z,-5.90
2019-01-31T06:08:52.458Z,-5.90
2019-01-31T06:11:21.105Z,-5.90
2019-01-31T06:13:49.682Z,-5.90
2019-01-31T06:16:18.530Z,-5.90
2019-01-31T06:18:47.305Z,-5.80
2019-01-31T06:21:15.896Z,-5.80
2019-01-31T06:23:44.466Z,-5.80
2019-01-31T06:26:13.051Z,-5.70
2019-01-31T06:28:41.623Z,-5.70
2019-01-31T06:31:10.274Z,-5.70
2019-01-31T06:33:38.921Z,-5.70
2019-01-31T06:36:07.867Z,-5.60
2019-01-31T06:38:36.422Z,-5.60
2019-01-31T06:41:05.163Z,-5.60
2019-01-31T06:43:33.737Z,-5.60
2019-01-31T06:46:02.382Z,-5.60
2019-01-31T06:48:34.002Z,-5.60
2019-01-31T06:51:01.259Z,-5.60
2019-01-31T06:53:29.844Z,-5.50
2019-01-31T06:55:58.557Z,-5.50
2019-01-31T06:58:27.141Z,-5.50
2019-01-31T07:00:55.717Z,-5.50
2019-01-31T07:03:24.474Z,-5.50
2019-01-31T07:05:53.054Z,-5.50
2019-01-31T07:08:21.697Z,-5.40
2019-01-31T07:10:50.637Z,-5.40
2019-01-31T07:13:19.366Z,-5.40
2019-01-31T07:15:47.954Z,-5.40
2019-01-31T07:18:16.521Z,-5.30
2019-01-31T07:20:45.174Z,-5.30
2019-01-31T07:23:13.750Z,-5.40
2019-01-31T07:25:42.434Z,-5.30
2019-01-31T07:28:11.149Z,-5.30
2019-01-31T07:30:39.805Z,-5.30
2019-01-31T07:33:08.560Z,-5.30
2019-01-31T07:35:37.218Z,-5.20
2019-01-31T07:38:05.875Z,-5.20
2019-01-31T07:40:34.450Z,-5.10
2019-01-31T07:43:03.122Z,-5.20
2019-01-31T07:45:32.539Z,-5.20
2019-01-31T07:48:01.190Z,-5.10
2019-01-31T07:50:30.019Z,-5.00
2019-01-31T07:52:58.728Z,-5.00
2019-01-31T07:55:27.459Z,-4.90
2019-01-31T07:57:56.034Z,-4.90
2019-01-31T08:00:25.862Z,-4.90
2019-01-31T08:02:54.578Z,-4.80
2019-01-31T08:05:24.307Z,-4.80
2019-01-31T08:07:55.318Z,-4.70
2019-01-31T08:10:35.718Z,-4.60
2019-01-31T08:13:04.737Z,-4.60
2019-01-31T08:15:33.502Z,-4.50
2019-01-31T08:18:02.219Z,-4.50
2019-01-31T08:20:30.866Z,-4.50
2019-01-31T08:23:00.240Z,-4.50
2019-01-31T08:25:29.841Z,-4.50
2019-01-31T08:27:58.589Z,-4.40
2019-01-31T08:30:30.243Z,-4.40
2019-01-31T08:32:58.969Z,-4.30
2019-01-31T08:35:27.686Z,-4.20
2019-01-31T08:37:56.338Z,-4.10
2019-01-31T08:40:24.922Z,-4.00
2019-01-31T08:42:53.770Z,-4.00
2019-01-31T08:45:22.497Z,-4.00
2019-01-31T08:47:51.141Z,-3.90
2019-01-31T08:50:22.076Z,-3.80
2019-01-31T08:52:50.780Z,-3.70
2019-01-31T08:55:19.546Z,-3.60
2019-01-31T08:57:48.358Z,-3.50
2019-01-31T09:00:22.747Z,-3.50
2019-01-31T09:02:51.420Z,-3.40
2019-01-31T09:05:20.083Z,-3.30
2019-01-31T09:07:48.754Z,-3.30
2019-01-31T09:10:19.951Z,-3.20
2019-01-31T09:12:48.681Z,-3.20
2019-01-31T09:15:19.996Z,-3.20
2019-01-31T09:17:48.678Z,-3.20
2019-01-31T09:20:20.794Z,-3.30
2019-01-31T09:22:55.160Z,-3.30
2019-01-31T09:25:32.626Z,-3.30
2019-01-31T09:28:13.146Z,-3.30
2019-01-31T09:31:03.134Z,-3.10
2019-01-31T09:34:00.474Z,-3.00
2019-01-31T09:36:32.126Z,-2.80
2019-01-31T09:39:25.344Z,-2.80
2019-01-31T09:42:08.842Z,-2.60
2019-01-31T09:44:49.418Z,-2.40
2019-01-31T09:47:32.478Z,-2.30
2019-01-31T09:50:32.826Z,-2.40
2019-01-31T09:53:19.762Z,-2.30
2019-01-31T09:56:10.746Z,-1.90
2019-01-31T09:59:03.334Z,-1.50
2019-01-31T10:01:55.746Z,-1.50
2019-01-31T10:04:48.618Z,-1.70
2019-01-31T10:07:35.134Z,-1.70
2019-01-31T10:10:15.549Z,-1.80
2019-01-31T10:12:48.645Z,-1.60
2019-01-31T10:15:29.311Z,-1.70
2019-01-31T10:18:10.012Z,-1.60
2019-01-31T10:20:50.715Z,-1.60
2019-01-31T10:23:28.494Z,-1.60
2019-01-31T10:26:11.998Z,-1.50
2019-01-31T10:29:02.162Z,-1.30
2019-01-31T10:31:49.097Z,-1.20
2019-01-31T10:34:26.754Z,-0.90
2019-01-31T10:37:01.107Z,-0.80
2019-01-31T10:39:50.977Z,-0.80
2019-01-31T10:42:34.643Z,-0.80
2019-01-31T10:45:31.754Z,-0.90
2019-01-31T10:48:21.330Z,-0.80
2019-01-31T10:51:09.806Z,-1.00
2019-01-31T10:53:41.539Z,-0.90
2019-01-31T10:56:16.233Z,-0.80
2019-01-31T10:58:47.890Z,-0.50
2019-01-31T11:01:19.534Z,-0.30
2019-01-31T11:04:11.662Z,-0.30
2019-01-31T11:06:49.138Z,0.10
2019-01-31T11:09:29.813Z,0.30
2019-01-31T11:12:10.498Z,0.10
2019-01-31T11:14:54.502Z,0.00
2019-01-31T11:17:38.298Z,-0.30
2019-01-31T11:20:18.683Z,-0.50
2019-01-31T11:22:50.421Z,-0.70
2019-01-31T11:25:28.229Z,-0.70
2019-01-31T11:28:21.127Z,-0.70
2019-01-31T11:30:55.785Z,-1.10
2019-01-31T11:33:30.377Z,-1.20
2019-01-31T11:36:11.210Z,-1.10
2019-01-31T11:39:00.060Z,-1.10
2019-01-31T11:41:58.542Z,-1.00
2019-01-31T11:44:49.949Z,-1.00
2019-01-31T11:47:41.050Z,-0.90
2019-01-31T11:50:18.631Z,-1.10
2019-01-31T11:52:59.118Z,-1.20
2019-01-31T11:55:33.618Z,-1.20
2019-01-31T11:58:05.658Z,-1.30
2019-01-31T12:00:34.470Z,-1.40
2019-01-31T12:03:03.057Z,-1.50
2019-01-31T12:05:31.642Z,-1.60
2019-01-31T12:08:00.350Z,-1.50
2019-01-31T12:10:29.009Z,-1.40
2019-01-31T12:12:58.018Z,-1.30
2019-01-31T12:15:26.606Z,-1.20
2019-01-31T12:17:55.413Z,-1.00
2019-01-31T12:20:23.990Z,-1.00
2019-01-31T12:22:52.638Z,-1.00
2019-01-31T12:25:21.301Z,-1.00
2019-01-31T12:27:49.867Z,-0.80
2019-01-31T12:30:24.532Z,-0.80
2019-01-31T12:32:53.114Z,-0.70
2019-01-31T12:35:21.760Z,-0.90
2019-01-31T12:37:50.445Z,-0.90
2019-01-31T12:40:19.463Z,-0.90
2019-01-31T12:42:48.206Z,-1.10
2019-01-31T12:45:18.734Z,-1.00
2019-01-31T12:47:47.452Z,-1.00
2019-01-31T12:50:21.950Z,-1.10
2019-01-31T12:52:50.662Z,-1.10
2019-01-31T12:55:19.393Z,-1.00
2019-01-31T12:57:48.029Z,-0.90
2019-01-31T13:00:27.778Z,-1.00
2019-01-31T13:02:56.421Z,-0.90
2019-01-31T13:05:25.277Z,-0.90
2019-01-31T13:07:54.009Z,-0.90
2019-01-31T13:10:22.654Z,-1.00
2019-01-31T13:12:51.780Z,-1.00
2019-01-31T13:15:20.567Z,-1.00
2019-01-31T13:17:50.718Z,-1.00
2019-01-31T13:20:23.671Z,-1.10
2019-01-31T13:22:54.294Z,-1.00
2019-01-31T13:25:24.378Z,-1.00
2019-01-31T13:27:53.218Z,-1.00
2019-01-31T13:30:23.233Z,-0.90
2019-01-31T13:32:54.121Z,-1.00
2019-01-31T13:35:22.930Z,-0.90
2019-01-31T13:37:51.506Z,-0.90
2019-01-31T13:40:22.226Z,-1.00
2019-01-31T13:42:51.610Z,-1.00
2019-01-31T13:45:29.186Z,-0.90
2019-01-31T13:48:01.453Z,-1.00
2019-01-31T13:50:30.182Z,-1.00
2019-01-31T13:52:58.755Z,-1.00
2019-01-31T13:55:30.526Z,-0.90
2019-01-31T13:57:59.266Z,-1.00
2019-01-31T14:00:27.902Z,-0.90
2019-01-31T14:02:56.733Z,-1.00
2019-01-31T14:05:25.633Z,-1.00
2019-01-31T14:07:54.765Z,-1.10
2019-01-31T14:10:42.682Z,-1.10
2019-01-31T14:13:11.672Z,-1.10
2019-01-31T14:15:40.511Z,-1.30
2019-01-31T14:18:09.337Z,-1.20
2019-01-31T14:20:37.985Z,-1.20
2019-01-31T14:23:06.626Z,-1.30
2019-01-31T14:25:35.283Z,-1.30
2019-01-31T14:28:04.329Z,-1.20
2019-01-31T14:30:35.150Z,-1.20
2019-01-31T14:33:04.630Z,-1.30
2019-01-31T14:35:33.461Z,-1.30
2019-01-31T14:38:02.106Z,-1.30
2019-01-31T14:40:30.765Z,-1.40
2019-01-31T14:42:59.538Z,-1.40
2019-01-31T14:45:30.208Z,-1.40
2019-01-31T14:47:58.630Z,-1.40
2019-01-31T14:50:34.909Z,-1.40
2019-01-31T14:53:03.763Z,-1.40
2019-01-31T14:55:32.334Z,-1.40
2019-01-31T14:58:01.082Z,-1.30
2019-01-31T15:00:31.794Z,-1.40
2019-01-31T15:03:00.410Z,-1.40
2019-01-31T15:05:29.631Z,-1.40
2019-01-31T15:07:58.354Z,-1.30
2019-01-31T15:10:29.079Z,-1.40
2019-01-31T15:12:57.779Z,-1.40
2019-01-31T15:15:26.708Z,-1.40
2019-01-31T15:17:55.440Z,-1.40
2019-01-31T15:20:37.574Z,-1.50
2019-01-31T15:23:00.022Z,-1.40
2019-01-31T15:25:28.854Z,-1.40
2019-01-31T15:27:57.670Z,-1.40
2019-01-31T15:30:29.330Z,-1.50
2019-01-31T15:32:58.450Z,-1.50
2019-01-31T15:35:27.514Z,-1.50
2019-01-31T15:37:56.526Z,-1.50
2019-01-31T15:40:34.221Z,-1.50
2019-01-31T15:43:03.049Z,-1.50
2019-01-31T15:45:31.592Z,-1.50
2019-01-31T15:48:00.314Z,-1.50
2019-01-31T15:50:29.325Z,-1.60
2019-01-31T15:52:57.978Z,-1.50
2019-01-31T15:55:27.890Z,-1.60
2019-01-31T15:57:57.133Z,-1.50
2019-01-31T16:00:30.274Z,-1.60
2019-01-31T16:02:58.871Z,-1.60
2019-01-31T16:05:27.522Z,-1.60
2019-01-31T16:07:56.218Z,-1.60
2019-01-31T16:10:26.416Z,-1.60
2019-01-31T16:12:55.066Z,-1.60
2019-01-31T16:15:23.970Z,-1.60
2019-01-31T16:17:52.898Z,-1.70
2019-01-31T16:20:21.649Z,-1.70
2019-01-31T16:22:50.365Z,-1.70
2019-01-31T16:25:18.961Z,-1.70
2019-01-31T16:27:47.678Z,-1.70
2019-01-31T16:30:18.562Z,-1.70
2019-01-31T16:32:47.459Z,-1.60
2019-01-31T16:35:17.770Z,-1.70
2019-01-31T16:37:47.301Z,-1.70
2019-01-31T16:40:17.018Z,-1.70
2019-01-31T16:42:45.741Z,-1.70
2019-01-31T16:45:15.957Z,-1.80
2019-01-31T16:47:44.789Z,-1.70
2019-01-31T16:50:18.123Z,-1.70
2019-01-31T16:52:46.949Z,-1.70
2019-01-31T16:55:27.086Z,-1.70
2019-01-31T16:57:57.322Z,-1.80
2019-01-31T17:00:31.738Z,-1.80
2019-01-31T17:03:00.473Z,-1.80
2019-01-31T17:05:31.089Z,-1.80
2019-01-31T17:07:59.814Z,-1.70
2019-01-31T17:10:28.738Z,-1.70
2019-01-31T17:12:57.556Z,-1.70
2019-01-31T17:15:27.104Z,-1.70
2019-01-31T17:17:55.814Z,-1.70
2019-01-31T17:20:33.298Z,-1.80
2019-01-31T17:23:01.874Z,-1.80
2019-01-31T17:25:30.598Z,-1.80
2019-01-31T17:27:59.322Z,-1.80
2019-01-31T17:30:29.451Z,-1.80
2019-01-31T17:33:00.242Z,-1.80
2019-01-31T17:35:28.382Z,-1.80
2019-01-31T17:37:56.969Z,-1.90
2019-01-31T17:40:34.361Z,-1.80
2019-01-31T17:43:02.958Z,-1.80
2019-01-31T17:45:31.546Z,-1.70
2019-01-31T17:48:00.555Z,-1.70
2019-01-31T17:50:29.389Z,-1.70
2019-01-31T17:52:57.962Z,-1.70
2019-01-31T17:55:27.786Z,-1.70
2019-01-31T17:57:56.361Z,-1.70
2019-01-31T18:00:34.609Z,-1.70
2019-01-31T18:03:03.322Z,-1.70
2019-01-31T18:05:32.023Z,-1.70
2019-01-31T18:08:00.618Z,-1.70
2019-01-31T18:10:29.282Z,-1.60
2019-01-31T18:12:58.032Z,-1.60
2019-01-31T18:15:26.959Z,-1.60
2019-01-31T18:17:55.619Z,-1.60
2019-01-31T18:20:24.890Z,-1.60
2019-01-31T18:22:53.550Z,-1.50
2019-01-31T18:25:22.294Z,-1.50
2019-01-31T18:27:53.113Z,-1.50
2019-01-31T18:30:35.618Z,-1.40
2019-01-31T18:33:04.908Z,-1.40
2019-01-31T18:35:33.550Z,-1.50
2019-01-31T18:38:02.195Z,-1.40
2019-01-31T18:40:35.095Z,-1.30
2019-01-31T18:43:03.831Z,-1.40
2019-01-31T18:45:36.159Z,-1.40
2019-01-31T18:48:06.067Z,-1.30
2019-01-31T18:50:37.195Z,-1.30
2019-01-31T18:53:06.008Z,-1.20
2019-01-31T18:55:34.933Z,-1.20
2019-01-31T18:58:04.254Z,-1.20
2019-01-31T19:00:41.392Z,-1.20
2019-01-31T19:03:10.194Z,-1.20
2019-01-31T19:05:39.018Z,-1.10
2019-01-31T19:08:09.040Z,-1.10
2019-01-31T19:10:43.488Z,-1.10
2019-01-31T19:13:08.340Z,-1.10
2019-01-31T19:15:36.985Z,-1.00
2019-01-31T19:18:06.572Z,-1.10
2019-01-31T19:20:35.633Z,-1.10
2019-01-31T19:23:06.650Z,-1.00
2019-01-31T19:25:35.361Z,-1.00
2019-01-31T19:28:04.474Z,-1.00
2019-01-31T19:30:38.485Z,-0.90
2019-01-31T19:33:08.102Z,-0.90
2019-01-31T19:35:37.131Z,-0.90
2019-01-31T19:38:06.830Z,-0.80
2019-01-31T19:40:37.847Z,-0.80
2019-01-31T19:43:06.560Z,-0.80
2019-01-31T19:45:46.217Z,-0.80
2019-01-31T19:48:15.130Z,-0.80
2019-01-31T19:50:43.926Z,-0.80
2019-01-31T19:53:12.939Z,-0.80
2019-01-31T19:55:41.862Z,-0.80
2019-01-31T19:58:10.621Z,-0.70
2019-01-31T20:00:39.329Z,-0.70
2019-01-31T20:03:08.454Z,-0.60
2019-01-31T20:05:37.271Z,-0.60
2019-01-31T20:08:07.089Z,-0.60
2019-01-31T20:10:36.091Z,-0.60
2019-01-31T20:13:04.887Z,-0.60
2019-01-31T20:15:33.572Z,-0.50
2019-01-31T20:18:02.329Z,-0.50
2019-01-31T20:20:31.002Z,-0.50
2019-01-31T20:23:00.316Z,-0.50
2019-01-31T20:25:30.407Z,-0.40
2019-01-31T20:27:59.117Z,-0.50
2019-01-31T20:30:32.554Z,-0.50
2019-01-31T20:33:02.072Z,-0.50
2019-01-31T20:35:31.094Z,-0.40
2019-01-31T20:38:00.205Z,-0.50
2019-01-31T20:40:31.453Z,-0.40
2019-01-31T20:43:00.566Z,-0.50
2019-01-31T20:45:29.461Z,-0.50
2019-01-31T20:47:58.303Z,-0.50
2019-01-31T20:50:32.262Z,-0.50
2019-01-31T20:53:01.184Z,-0.50
2019-01-31T20:55:29.995Z,-0.60
2019-01-31T20:57:58.846Z,-0.60
2019-01-31T21:00:39.183Z,-0.60
2019-01-31T21:03:08.906Z,-0.50
2019-01-31T21:05:38.018Z,-0.50
2019-01-31T21:08:07.738Z,-0.50
2019-01-31T21:10:36.494Z,-0.50
2019-01-31T21:13:06.305Z,-0.50
2019-01-31T21:15:35.198Z,-0.50
2019-01-31T21:18:04.478Z,-0.50
2019-01-31T21:20:33.301Z,-0.50
2019-01-31T21:23:01.874Z,-0.50
2019-01-31T21:25:30.531Z,-0.50
2019-01-31T21:27:59.166Z,-0.40
2019-01-31T21:30:37.038Z,-0.50
2019-01-31T21:33:05.842Z,-0.50
2019-01-31T21:35:34.649Z,-0.40
2019-01-31T21:38:03.372Z,-0.40
2019-01-31T21:40:33.884Z,-0.40
2019-01-31T21:43:02.769Z,-0.30
2019-01-31T21:45:31.690Z,-0.40
2019-01-31T21:48:00.340Z,-0.40
2019-01-31T21:50:31.186Z,-0.40
2019-01-31T21:52:59.907Z,-0.40
2019-01-31T21:55:28.654Z,-0.50
2019-01-31T21:57:57.299Z,-0.50
2019-01-31T22:00:31.339Z,-0.60
2019-01-31T22:03:00.184Z,-0.60
2019-01-31T22:05:29.032Z,-0.70
2019-01-31T22:07:57.718Z,-0.80
2019-01-31T22:10:26.554Z,-0.90
2019-01-31T22:12:55.330Z,-0.80
2019-01-31T22:15:26.423Z,-0.80
2019-01-31T22:17:59.730Z,-0.80
2019-01-31T22:20:26.015Z,-0.70
2019-01-31T22:22:54.741Z,-0.70
2019-01-31T22:25:24.772Z,-0.60
2019-01-31T22:27:53.481Z,-0.60
2019-01-31T22:30:31.150Z,-0.50
2019-01-31T22:32:59.798Z,-0.50
2019-01-31T22:35:28.626Z,-0.40
2019-01-31T22:37:57.277Z,-0.40
2019-01-31T22:40:25.982Z,-0.40
2019-01-31T22:42:54.697Z,-0.40
2019-01-31T22:45:24.532Z,-0.40
2019-01-31T22:47:53.227Z,-0.40
2019-01-31T22:50:25.069Z,-0.30
2019-01-31T22:52:53.773Z,-0.30
2019-01-31T22:55:24.406Z,-0.30
2019-01-31T22:57:53.213Z,-0.30
2019-01-31T23:00:29.370Z,-0.30
2019-01-31T23:02:58.101Z,-0.30
2019-01-31T23:05:27.123Z,-0.30
2019-01-31T23:07:55.836Z,-0.30
2019-01-31T23:10:24.494Z,-0.30
2019-01-31T23:12:53.205Z,-0.40
2019-01-31T23:15:21.778Z,-0.40
2019-01-31T23:17:50.434Z,-0.40
2019-01-31T23:20:19.250Z,-0.40
2019-01-31T23:22:47.906Z,-0.50
2019-01-31T23:25:16.544Z,-0.50
2019-01-31T23:27:45.122Z,-0.50
2019-01-31T23:30:17.294Z,-0.50
2019-01-31T23:32:45.961Z,-0.50
2019-01-31T23:35:14.701Z,-0.50
2019-01-31T23:37:43.356Z,-0.50
2019-01-31T23:40:13.784Z,-0.50
2019-01-31T23:42:42.483Z,-0.50
2019-01-31T23:45:15.654Z,-0.50
2019-01-31T23:47:49.002Z,-0.60
2019-01-31T23:50:14.738Z,-0.60
2019-01-31T23:52:43.386Z,-0.60
2019-01-31T23:55:17.360Z,-0.50
2019-01-31T23:57:46.106Z,-0.50
